Aries — J8B5410 — position and weather

sailwx.info

Track history (hours):
 
Tides and Currents Weather Stations Pressure Air Temp Water Temp Dewpoint Dewpoint Depression Visibility Wind Speed Wind Dir Waves Ship Positions

Aries

Last reported at 2017-Nov-18 16:53 UTC. Time now 2017-Nov-22 16:49 UTC.
Position N 43°25' E 004°55'.

Length 110 m; draft 6.4 m.

Type: Ship. MMSI: 377523000.

Date/timePositionNaut miles runAvg speedWind from/ knotsBaromVisibWave heightAir tempDewpointWater temp
2017-Nov-18 16:53N 43°25' E 004°55'  
2017-Nov-12 08:02N 43°23' E 004°56'0 9.8
2017-Nov-12 08:00N 43°23' E 004°56'4 6.8
2017-Nov-12 07:30N 43°20' E 004°59'42511.1
2017-Nov-10 17:06N 37°34' W 000°25'111.6
2017-Nov-10 16:59N 37°33' W 000°26'1311.3
2017-Nov-10 15:52N 37°25' W 000°38'411.1
2017-Nov-10 15:30N 37°22' W 000°42'511.1
2017-Nov-10 15:00N 37°19' W 000°47'611.0
2017-Nov-10 14:30N 37°15' W 000°52'22211.2
2017-Nov-09 18:36N 36°00' W 005°13'112.9
2017-Nov-09 18:30N 36°00' W 005°15'712.7
2017-Nov-09 17:56N 35°58' W 005°23'  
Track history (hours):
 
Tides and Currents Weather Stations Pressure Air Temp Water Temp Dewpoint Dewpoint Depression Visibility Wind Speed Wind Dir Waves Ship Positions

Aries

Last reported at 2017-Nov-18 16:53 UTC. Time now 2017-Nov-22 16:49 UTC.
Position N 43°25' E 004°55'.

Length 110 m; draft 6.4 m.

Type: Ship. MMSI: 377523000.

Date/timePositionNaut miles runAvg speedWind from/ knotsBaromVisibWave heightAir tempDewpointWater temp
2017-Nov-18 16:53N 43°25' E 004°55'  
2017-Nov-12 08:02N 43°23' E 004°56'0 9.8
2017-Nov-12 08:00N 43°23' E 004°56'4 6.8
2017-Nov-12 07:30N 43°20' E 004°59'42511.1
2017-Nov-10 17:06N 37°34' W 000°25'111.6
2017-Nov-10 16:59N 37°33' W 000°26'1311.3
2017-Nov-10 15:52N 37°25' W 000°38'411.1
2017-Nov-10 15:30N 37°22' W 000°42'511.1
2017-Nov-10 15:00N 37°19' W 000°47'611.0
2017-Nov-10 14:30N 37°15' W 000°52'22211.2
2017-Nov-09 18:36N 36°00' W 005°13'112.9
2017-Nov-09 18:30N 36°00' W 005°15'712.7
2017-Nov-09 17:56N 35°58' W 005°23'  

Dump ship's entire track history